sensor_id;sensor_type;location;lat;lon;timestamp;temperature;humidity
14006;DHT22;7078;51.542;7.314;2022-11-15T00:01:22;10.60;99.90
14006;DHT22;7078;51.542;7.314;2022-11-15T00:03:51;10.60;99.90
14006;DHT22;7078;51.542;7.314;2022-11-15T00:06:16;10.60;99.90
14006;DHT22;7078;51.542;7.314;2022-11-15T00:08:42;10.70;99.90
14006;DHT22;7078;51.542;7.314;2022-11-15T00:11:10;10.70;99.90
14006;DHT22;7078;51.542;7.314;2022-11-15T00:13:36;10.70;99.90
14006;DHT22;7078;51.542;7.314;2022-11-15T00:16:01;10.70;99.90
14006;DHT22;7078;51.542;7.314;2022-11-15T00:18:28;10.80;99.90
14006;DHT22;7078;51.542;7.314;2022-11-15T00:20:54;10.80;99.90
14006;DHT22;7078;51.542;7.314;2022-11-15T00:23:20;10.80;99.90
14006;DHT22;7078;51.542;7.314;2022-11-15T00:25:45;10.90;99.90
14006;DHT22;7078;51.542;7.314;2022-11-15T00:28:11;10.90;99.90
14006;DHT22;7078;51.542;7.314;2022-11-15T00:30:36;10.90;99.90
14006;DHT22;7078;51.542;7.314;2022-11-15T00:33:03;11.00;99.90
14006;DHT22;7078;51.542;7.314;2022-11-15T00:35:32;11.00;99.90
14006;DHT22;7078;51.542;7.314;2022-11-15T00:37:58;11.00;99.90
14006;DHT22;7078;51.542;7.314;2022-11-15T00:40:25;11.00;99.90
14006;DHT22;7078;51.542;7.314;2022-11-15T00:42:50;11.10;99.90
14006;DHT22;7078;51.542;7.314;2022-11-15T00:45:16;11.10;99.90
14006;DHT22;7078;51.542;7.314;2022-11-15T00:47:44;11.20;99.90
14006;DHT22;7078;51.542;7.314;2022-11-15T00:50:10;11.20;99.90
14006;DHT22;7078;51.542;7.314;2022-11-15T00:52:36;11.30;99.90
14006;DHT22;7078;51.542;7.314;2022-11-15T00:55:01;11.30;99.90
14006;DHT22;7078;51.542;7.314;2022-11-15T00:57:27;11.30;99.90
14006;DHT22;7078;51.542;7.314;2022-11-15T00:59:52;11.40;99.90
14006;DHT22;7078;51.542;7.314;2022-11-15T01:02:18;11.40;99.90
14006;DHT22;7078;51.542;7.314;2022-11-15T01:04:43;11.40;99.90
14006;DHT22;7078;51.542;7.314;2022-11-15T01:07:09;11.40;99.90
14006;DHT22;7078;51.542;7.314;2022-11-15T01:09:34;11.50;99.90
14006;DHT22;7078;51.542;7.314;2022-11-15T01:12:00;11.50;99.90
14006;DHT22;7078;51.542;7.314;2022-11-15T01:14:26;11.60;99.90
14006;DHT22;7078;51.542;7.314;2022-11-15T01:16:51;11.60;99.90
14006;DHT22;7078;51.542;7.314;2022-11-15T01:19:17;11.70;99.90
14006;DHT22;7078;51.542;7.314;2022-11-15T01:21:42;11.70;99.90
14006;DHT22;7078;51.542;7.314;2022-11-15T01:24:12;11.70;99.90
14006;DHT22;7078;51.542;7.314;2022-11-15T01:26:37;11.80;99.90
14006;DHT22;7078;51.542;7.314;2022-11-15T01:29:03;11.80;99.90
14006;DHT22;7078;51.542;7.314;2022-11-15T01:31:29;11.80;99.90
14006;DHT22;7078;51.542;7.314;2022-11-15T01:33:54;11.90;99.90
14006;DHT22;7078;51.542;7.314;2022-11-15T01:36:21;11.90;99.90
14006;DHT22;7078;51.542;7.314;2022-11-15T01:38:56;11.90;99.90
14006;DHT22;7078;51.542;7.314;2022-11-15T01:41:28;11.90;99.90
14006;DHT22;7078;51.542;7.314;2022-11-15T01:43:56;12.00;99.90
14006;DHT22;7078;51.542;7.314;2022-11-15T01:48:52;12.00;99.90
14006;DHT22;7078;51.542;7.314;2022-11-15T01:51:20;12.00;99.90
14006;DHT22;7078;51.542;7.314;2022-11-15T01:53:50;12.00;99.90
14006;DHT22;7078;51.542;7.314;2022-11-15T01:56:21;12.00;99.90
14006;DHT22;7078;51.542;7.314;2022-11-15T01:58:48;12.00;99.90
14006;DHT22;7078;51.542;7.314;2022-11-15T02:01:14;12.00;99.90
14006;DHT22;7078;51.542;7.314;2022-11-15T02:03:58;12.00;99.90
14006;DHT22;7078;51.542;7.314;2022-11-15T02:06:25;12.00;99.90
14006;DHT22;7078;51.542;7.314;2022-11-15T02:08:50;11.90;99.90
14006;DHT22;7078;51.542;7.314;2022-11-15T02:11:17;12.00;99.90
14006;DHT22;7078;51.542;7.314;2022-11-15T02:13:43;12.00;99.90
14006;DHT22;7078;51.542;7.314;2022-11-15T02:16:28;12.00;99.90
14006;DHT22;7078;51.542;7.314;2022-11-15T02:19:20;12.00;99.90
14006;DHT22;7078;51.542;7.314;2022-11-15T02:22:22;12.00;99.90
14006;DHT22;7078;51.542;7.314;2022-11-15T02:27:42;12.00;99.90
14006;DHT22;7078;51.542;7.314;2022-11-15T02:32:52;12.00;99.90
14006;DHT22;7078;51.542;7.314;2022-11-15T02:35:43;12.00;99.90
14006;DHT22;7078;51.542;7.314;2022-11-15T02:43:28;12.00;99.90
14006;DHT22;7078;51.542;7.314;2022-11-15T02:49:09;12.10;99.90
14006;DHT22;7078;51.542;7.314;2022-11-15T02:51:35;12.10;99.90
14006;DHT22;7078;51.542;7.314;2022-11-15T02:54:00;12.10;99.90
14006;DHT22;7078;51.542;7.314;2022-11-15T02:56:26;12.10;99.90
14006;DHT22;7078;51.542;7.314;2022-11-15T02:59:04;12.10;99.90
14006;DHT22;7078;51.542;7.314;2022-11-15T03:01:55;12.10;99.90
14006;DHT22;7078;51.542;7.314;2022-11-15T03:04:44;12.10;99.90
14006;DHT22;7078;51.542;7.314;2022-11-15T03:07:15;12.10;99.90
14006;DHT22;7078;51.542;7.314;2022-11-15T03:15:21;11.90;99.90
14006;DHT22;7078;51.542;7.314;2022-11-15T03:17:58;11.90;99.90
14006;DHT22;7078;51.542;7.314;2022-11-15T03:20:26;11.90;99.90
14006;DHT22;7078;51.542;7.314;2022-11-15T03:22:55;11.90;99.90
14006;DHT22;7078;51.542;7.314;2022-11-15T03:25:24;11.90;99.90
14006;DHT22;7078;51.542;7.314;2022-11-15T03:27:53;12.00;99.90
14006;DHT22;7078;51.542;7.314;2022-11-15T03:30:20;12.00;99.90
14006;DHT22;7078;51.542;7.314;2022-11-15T03:32:55;12.00;99.90
14006;DHT22;7078;51.542;7.314;2022-11-15T03:35:24;12.00;99.90
14006;DHT22;7078;51.542;7.314;2022-11-15T03:38:14;12.00;99.90
14006;DHT22;7078;51.542;7.314;2022-11-15T03:40:49;12.10;99.90
14006;DHT22;7078;51.542;7.314;2022-11-15T03:43:35;12.10;99.90
14006;DHT22;7078;51.542;7.314;2022-11-15T03:46:27;12.10;99.90
14006;DHT22;7078;51.542;7.314;2022-11-15T03:49:10;12.10;99.90
14006;DHT22;7078;51.542;7.314;2022-11-15T03:51:38;12.10;99.90
14006;DHT22;7078;51.542;7.314;2022-11-15T03:54:04;12.10;99.90
14006;DHT22;7078;51.542;7.314;2022-11-15T03:56:30;12.10;99.90
14006;DHT22;7078;51.542;7.314;2022-11-15T03:58:55;12.10;99.90
14006;DHT22;7078;51.542;7.314;2022-11-15T04:01:21;12.10;99.90
14006;DHT22;7078;51.542;7.314;2022-11-15T04:03:46;12.20;99.90
14006;DHT22;7078;51.542;7.314;2022-11-15T04:06:12;12.20;99.90
14006;DHT22;7078;51.542;7.314;2022-11-15T04:08:37;12.20;99.90
14006;DHT22;7078;51.542;7.314;2022-11-15T04:11:03;12.20;99.90
14006;DHT22;7078;51.542;7.314;2022-11-15T04:13:28;12.20;99.90
14006;DHT22;7078;51.542;7.314;2022-11-15T04:15:54;12.20;99.90
14006;DHT22;7078;51.542;7.314;2022-11-15T04:18:19;12.20;99.90
14006;DHT22;7078;51.542;7.314;2022-11-15T04:20:45;12.20;99.90
14006;DHT22;7078;51.542;7.314;2022-11-15T04:23:29;12.20;99.90
14006;DHT22;7078;51.542;7.314;2022-11-15T04:26:33;12.20;99.90
14006;DHT22;7078;51.542;7.314;2022-11-15T04:28:58;12.10;99.90
14006;DHT22;7078;51.542;7.314;2022-11-15T04:31:42;12.10;99.90
14006;DHT22;7078;51.542;7.314;2022-11-15T04:34:08;12.10;99.90
14006;DHT22;7078;51.542;7.314;2022-11-15T04:36:33;12.00;99.90
14006;DHT22;7078;51.542;7.314;2022-11-15T04:39:17;12.10;99.90
14006;DHT22;7078;51.542;7.314;2022-11-15T04:41:43;12.10;99.90
14006;DHT22;7078;51.542;7.314;2022-11-15T04:44:08;12.10;99.90
14006;DHT22;7078;51.542;7.314;2022-11-15T04:46:35;12.10;99.90
14006;DHT22;7078;51.542;7.314;2022-11-15T04:49:00;12.20;99.90
14006;DHT22;7078;51.542;7.314;2022-11-15T04:51:26;12.20;99.90
14006;DHT22;7078;51.542;7.314;2022-11-15T04:53:51;12.20;99.90
14006;DHT22;7078;51.542;7.314;2022-11-15T04:56:17;12.30;99.90
14006;DHT22;7078;51.542;7.314;2022-11-15T04:58:42;12.30;99.90
14006;DHT22;7078;51.542;7.314;2022-11-15T05:01:13;12.30;99.90
14006;DHT22;7078;51.542;7.314;2022-11-15T05:03:42;12.30;99.90
14006;DHT22;7078;51.542;7.314;2022-11-15T05:06:26;12.30;99.90
14006;DHT22;7078;51.542;7.314;2022-11-15T05:08:52;12.30;99.90
14006;DHT22;7078;51.542;7.314;2022-11-15T05:11:18;12.30;99.90
14006;DHT22;7078;51.542;7.314;2022-11-15T05:13:43;12.40;99.90
14006;DHT22;7078;51.542;7.314;2022-11-15T05:16:09;12.40;99.90
14006;DHT22;7078;51.542;7.314;2022-11-15T05:18:34;12.40;99.90
14006;DHT22;7078;51.542;7.314;2022-11-15T05:21:08;12.40;99.90
14006;DHT22;7078;51.542;7.314;2022-11-15T05:23:33;12.40;99.90
14006;DHT22;7078;51.542;7.314;2022-11-15T05:26:00;12.40;99.90
14006;DHT22;7078;51.542;7.314;2022-11-15T05:28:26;12.50;99.90
14006;DHT22;7078;51.542;7.314;2022-11-15T05:30:51;12.50;99.90
14006;DHT22;7078;51.542;7.314;2022-11-15T05:33:17;12.50;99.90
14006;DHT22;7078;51.542;7.314;2022-11-15T05:35:46;12.50;99.90
14006;DHT22;7078;51.542;7.314;2022-11-15T05:38:15;12.50;99.90
14006;DHT22;7078;51.542;7.314;2022-11-15T05:40:41;12.50;99.90
14006;DHT22;7078;51.542;7.314;2022-11-15T05:43:07;12.50;99.90
14006;DHT22;7078;51.542;7.314;2022-11-15T05:45:34;12.50;99.90
14006;DHT22;7078;51.542;7.314;2022-11-15T05:48:01;12.50;99.90
14006;DHT22;7078;51.542;7.314;2022-11-15T05:50:30;12.50;99.90
14006;DHT22;7078;51.542;7.314;2022-11-15T05:52:56;12.50;99.90
14006;DHT22;7078;51.542;7.314;2022-11-15T05:55:22;12.60;99.90
14006;DHT22;7078;51.542;7.314;2022-11-15T05:57:47;12.60;99.90
14006;DHT22;7078;51.542;7.314;2022-11-15T06:00:13;12.60;99.90
14006;DHT22;7078;51.542;7.314;2022-11-15T06:02:39;12.60;99.90
14006;DHT22;7078;51.542;7.314;2022-11-15T06:05:04;12.60;99.90
14006;DHT22;7078;51.542;7.314;2022-11-15T06:07:30;12.60;99.90
14006;DHT22;7078;51.542;7.314;2022-11-15T06:09:56;12.60;99.90
14006;DHT22;7078;51.542;7.314;2022-11-15T06:12:21;12.60;99.90
14006;DHT22;7078;51.542;7.314;2022-11-15T06:14:47;12.70;99.90
14006;DHT22;7078;51.542;7.314;2022-11-15T06:17:12;12.70;99.90
14006;DHT22;7078;51.542;7.314;2022-11-15T06:19:38;12.70;99.90
14006;DHT22;7078;51.542;7.314;2022-11-15T06:22:03;12.70;99.90
14006;DHT22;7078;51.542;7.314;2022-11-15T06:24:29;12.70;99.90
14006;DHT22;7078;51.542;7.314;2022-11-15T06:26:55;12.60;99.90
14006;DHT22;7078;51.542;7.314;2022-11-15T06:29:20;12.60;99.90
14006;DHT22;7078;51.542;7.314;2022-11-15T06:31:46;12.60;99.90
14006;DHT22;7078;51.542;7.314;2022-11-15T06:34:11;12.60;99.90
14006;DHT22;7078;51.542;7.314;2022-11-15T06:36:37;12.60;99.90
14006;DHT22;7078;51.542;7.314;2022-11-15T06:39:03;12.60;99.90
14006;DHT22;7078;51.542;7.314;2022-11-15T06:41:29;12.50;99.90
14006;DHT22;7078;51.542;7.314;2022-11-15T06:43:56;12.50;99.90
14006;DHT22;7078;51.542;7.314;2022-11-15T06:46:21;12.60;99.90
14006;DHT22;7078;51.542;7.314;2022-11-15T06:48:47;12.60;99.90
14006;DHT22;7078;51.542;7.314;2022-11-15T06:51:14;12.60;99.90
14006;DHT22;7078;51.542;7.314;2022-11-15T06:53:40;12.60;99.90
14006;DHT22;7078;51.542;7.314;2022-11-15T06:56:06;12.70;99.90
14006;DHT22;7078;51.542;7.314;2022-11-15T06:58:32;12.70;99.90
14006;DHT22;7078;51.542;7.314;2022-11-15T07:01:00;12.70;99.90
14006;DHT22;7078;51.542;7.314;2022-11-15T07:03:25;12.80;99.90
14006;DHT22;7078;51.542;7.314;2022-11-15T07:05:53;12.70;99.90
14006;DHT22;7078;51.542;7.314;2022-11-15T07:08:20;12.70;99.90
14006;DHT22;7078;51.542;7.314;2022-11-15T07:10:45;12.80;99.90
14006;DHT22;7078;51.542;7.314;2022-11-15T07:13:11;12.80;99.90
14006;DHT22;7078;51.542;7.314;2022-11-15T07:15:36;12.80;99.90
14006;DHT22;7078;51.542;7.314;2022-11-15T07:18:02;12.80;99.90
14006;DHT22;7078;51.542;7.314;2022-11-15T07:20:27;12.80;99.90
14006;DHT22;7078;51.542;7.314;2022-11-15T07:23:03;12.80;99.90
14006;DHT22;7078;51.542;7.314;2022-11-15T07:25:29;12.80;99.90
14006;DHT22;7078;51.542;7.314;2022-11-15T07:27:58;12.80;99.90
14006;DHT22;7078;51.542;7.314;2022-11-15T07:30:25;12.80;99.90
14006;DHT22;7078;51.542;7.314;2022-11-15T07:32:59;12.90;99.90
14006;DHT22;7078;51.542;7.314;2022-11-15T07:35:26;12.90;99.90
14006;DHT22;7078;51.542;7.314;2022-11-15T07:37:59;13.00;99.90
14006;DHT22;7078;51.542;7.314;2022-11-15T07:40:26;13.00;99.90
14006;DHT22;7078;51.542;7.314;2022-11-15T07:42:52;12.90;99.90
14006;DHT22;7078;51.542;7.314;2022-11-15T07:45:24;12.90;99.90
14006;DHT22;7078;51.542;7.314;2022-11-15T07:47:53;12.90;99.90
14006;DHT22;7078;51.542;7.314;2022-11-15T07:50:19;12.90;99.90
14006;DHT22;7078;51.542;7.314;2022-11-15T07:52:45;12.90;99.90
14006;DHT22;7078;51.542;7.314;2022-11-15T07:55:11;12.90;99.90
14006;DHT22;7078;51.542;7.314;2022-11-15T07:57:36;12.80;99.90
14006;DHT22;7078;51.542;7.314;2022-11-15T08:00:03;12.80;99.90
14006;DHT22;7078;51.542;7.314;2022-11-15T08:02:29;12.60;99.90
14006;DHT22;7078;51.542;7.314;2022-11-15T08:04:54;12.70;99.90
14006;DHT22;7078;51.542;7.314;2022-11-15T08:07:20;12.70;99.90
14006;DHT22;7078;51.542;7.314;2022-11-15T08:09:45;12.70;99.90
14006;DHT22;7078;51.542;7.314;2022-11-15T08:12:11;12.70;99.90
14006;DHT22;7078;51.542;7.314;2022-11-15T08:14:36;12.60;99.90
14006;DHT22;7078;51.542;7.314;2022-11-15T08:17:02;12.70;99.90
14006;DHT22;7078;51.542;7.314;2022-11-15T08:19:27;12.70;99.90
14006;DHT22;7078;51.542;7.314;2022-11-15T08:21:53;12.60;99.90
14006;DHT22;7078;51.542;7.314;2022-11-15T08:24:18;12.60;99.90
14006;DHT22;7078;51.542;7.314;2022-11-15T08:26:45;12.60;99.90
14006;DHT22;7078;51.542;7.314;2022-11-15T08:29:11;12.60;99.90
14006;DHT22;7078;51.542;7.314;2022-11-15T08:31:36;12.60;99.90
14006;DHT22;7078;51.542;7.314;2022-11-15T08:34:03;12.70;99.90
14006;DHT22;7078;51.542;7.314;2022-11-15T08:36:29;12.70;99.90
14006;DHT22;7078;51.542;7.314;2022-11-15T08:38:54;12.70;99.90
14006;DHT22;7078;51.542;7.314;2022-11-15T08:41:33;12.70;99.90
14006;DHT22;7078;51.542;7.314;2022-11-15T08:43:59;12.80;99.90
14006;DHT22;7078;51.542;7.314;2022-11-15T08:46:24;12.80;99.90
14006;DHT22;7078;51.542;7.314;2022-11-15T08:48:50;12.80;99.90
14006;DHT22;7078;51.542;7.314;2022-11-15T08:51:16;12.90;99.90
14006;DHT22;7078;51.542;7.314;2022-11-15T08:53:42;12.90;99.90
14006;DHT22;7078;51.542;7.314;2022-11-15T08:56:09;12.90;99.90
14006;DHT22;7078;51.542;7.314;2022-11-15T08:58:35;12.90;99.90
14006;DHT22;7078;51.542;7.314;2022-11-15T09:01:01;12.90;99.90
14006;DHT22;7078;51.542;7.314;2022-11-15T09:03:27;12.90;99.90
14006;DHT22;7078;51.542;7.314;2022-11-15T09:05:57;13.00;99.90
14006;DHT22;7078;51.542;7.314;2022-11-15T09:08:23;13.00;99.90
14006;DHT22;7078;51.542;7.314;2022-11-15T09:10:49;13.10;99.90
14006;DHT22;7078;51.542;7.314;2022-11-15T09:13:14;13.10;99.90
14006;DHT22;7078;51.542;7.314;2022-11-15T09:15:40;13.10;99.90
14006;DHT22;7078;51.542;7.314;2022-11-15T09:18:05;13.10;99.90
14006;DHT22;7078;51.542;7.314;2022-11-15T09:20:31;13.10;99.90
14006;DHT22;7078;51.542;7.314;2022-11-15T09:23:01;13.10;99.90
14006;DHT22;7078;51.542;7.314;2022-11-15T09:25:27;13.10;99.90
14006;DHT22;7078;51.542;7.314;2022-11-15T09:27:52;13.10;99.90
14006;DHT22;7078;51.542;7.314;2022-11-15T09:30:18;13.10;99.90
14006;DHT22;7078;51.542;7.314;2022-11-15T09:32:43;13.10;99.90
14006;DHT22;7078;51.542;7.314;2022-11-15T09:35:09;13.10;99.90
14006;DHT22;7078;51.542;7.314;2022-11-15T09:37:34;13.10;99.90
14006;DHT22;7078;51.542;7.314;2022-11-15T09:40:00;13.10;99.90
14006;DHT22;7078;51.542;7.314;2022-11-15T09:45:20;13.20;99.90
14006;DHT22;7078;51.542;7.314;2022-11-15T09:47:49;13.30;99.90
14006;DHT22;7078;51.542;7.314;2022-11-15T09:50:36;13.20;99.90
14006;DHT22;7078;51.542;7.314;2022-11-15T09:53:04;13.20;99.90
14006;DHT22;7078;51.542;7.314;2022-11-15T09:55:51;13.20;99.90
14006;DHT22;7078;51.542;7.314;2022-11-15T09:58:39;13.20;99.90
14006;DHT22;7078;51.542;7.314;2022-11-15T10:01:14;13.30;99.90
14006;DHT22;7078;51.542;7.314;2022-11-15T10:03:42;13.40;99.90
14006;DHT22;7078;51.542;7.314;2022-11-15T10:06:26;13.40;99.90
14006;DHT22;7078;51.542;7.314;2022-11-15T10:09:02;13.50;99.90
14006;DHT22;7078;51.542;7.314;2022-11-15T10:11:32;13.50;99.90
14006;DHT22;7078;51.542;7.314;2022-11-15T10:14:02;13.60;99.90
14006;DHT22;7078;51.542;7.314;2022-11-15T10:24:43;13.60;99.90
14006;DHT22;7078;51.542;7.314;2022-11-15T10:27:20;13.50;99.90
14006;DHT22;7078;51.542;7.314;2022-11-15T10:29:50;13.50;99.90
14006;DHT22;7078;51.542;7.314;2022-11-15T10:32:19;13.50;99.90
14006;DHT22;7078;51.542;7.314;2022-11-15T10:34:45;13.60;99.90
14006;DHT22;7078;51.542;7.314;2022-11-15T10:37:11;13.60;99.90
14006;DHT22;7078;51.542;7.314;2022-11-15T10:39:37;13.60;99.90
14006;DHT22;7078;51.542;7.314;2022-11-15T10:42:26;13.60;99.90
14006;DHT22;7078;51.542;7.314;2022-11-15T10:44:53;13.60;99.90
14006;DHT22;7078;51.542;7.314;2022-11-15T10:47:31;13.60;99.90
14006;DHT22;7078;51.542;7.314;2022-11-15T10:50:04;13.60;99.90
14006;DHT22;7078;51.542;7.314;2022-11-15T10:52:33;13.70;99.90
14006;DHT22;7078;51.542;7.314;2022-11-15T10:55:19;13.70;99.90
14006;DHT22;7078;51.542;7.314;2022-11-15T10:57:55;13.60;99.90
14006;DHT22;7078;51.542;7.314;2022-11-15T11:00:29;13.60;99.90
14006;DHT22;7078;51.542;7.314;2022-11-15T11:03:00;13.60;99.90
14006;DHT22;7078;51.542;7.314;2022-11-15T11:05:38;13.60;99.90
14006;DHT22;7078;51.542;7.314;2022-11-15T11:10:35;13.80;99.90
14006;DHT22;7078;51.542;7.314;2022-11-15T11:15:58;13.90;99.90
14006;DHT22;7078;51.542;7.314;2022-11-15T11:18:35;13.90;99.90
14006;DHT22;7078;51.542;7.314;2022-11-15T11:21:17;13.90;99.90
14006;DHT22;7078;51.542;7.314;2022-11-15T11:23:54;13.90;99.90
14006;DHT22;7078;51.542;7.314;2022-11-15T11:26:44;13.90;99.90
14006;DHT22;7078;51.542;7.314;2022-11-15T11:29:20;14.00;99.90
14006;DHT22;7078;51.542;7.314;2022-11-15T11:34:46;14.00;99.90
14006;DHT22;7078;51.542;7.314;2022-11-15T11:37:35;14.10;99.90
14006;DHT22;7078;51.542;7.314;2022-11-15T11:45:47;14.20;99.90
14006;DHT22;7078;51.542;7.314;2022-11-15T11:48:34;14.30;99.90
14006;DHT22;7078;51.542;7.314;2022-11-15T11:51:16;14.20;99.80
14006;DHT22;7078;51.542;7.314;2022-11-15T11:56:39;14.30;98.20
14006;DHT22;7078;51.542;7.314;2022-11-15T11:59:33;14.30;97.30
14006;DHT22;7078;51.542;7.314;2022-11-15T12:02:14;14.40;94.40
14006;DHT22;7078;51.542;7.314;2022-11-15T12:04:45;14.50;94.70
14006;DHT22;7078;51.542;7.314;2022-11-15T12:07:25;14.50;93.10
14006;DHT22;7078;51.542;7.314;2022-11-15T12:12:47;14.60;91.20
14006;DHT22;7078;51.542;7.314;2022-11-15T12:15:27;14.70;89.50
14006;DHT22;7078;51.542;7.314;2022-11-15T12:17:55;14.60;88.10
14006;DHT22;7078;51.542;7.314;2022-11-15T12:20:23;14.60;88.10
14006;DHT22;7078;51.542;7.314;2022-11-15T12:23:15;14.60;87.00
14006;DHT22;7078;51.542;7.314;2022-11-15T12:25:52;14.60;87.30
14006;DHT22;7078;51.542;7.314;2022-11-15T12:28:41;14.60;84.80
14006;DHT22;7078;51.542;7.314;2022-11-15T12:31:18;14.60;84.10
14006;DHT22;7078;51.542;7.314;2022-11-15T12:33:47;14.60;84.50
14006;DHT22;7078;51.542;7.314;2022-11-15T12:38:55;14.70;83.90
14006;DHT22;7078;51.542;7.314;2022-11-15T12:41:23;14.70;83.80
14006;DHT22;7078;51.542;7.314;2022-11-15T12:43:49;14.70;83.40
14006;DHT22;7078;51.542;7.314;2022-11-15T13:02:26;14.60;86.60
14006;DHT22;7078;51.542;7.314;2022-11-15T13:04:55;14.50;86.30
14006;DHT22;7078;51.542;7.314;2022-11-15T13:12:57;14.50;89.50
14006;DHT22;7078;51.542;7.314;2022-11-15T13:16:17;14.50;90.00
14006;DHT22;7078;51.542;7.314;2022-11-15T13:18:39;14.50;90.00
14006;DHT22;7078;51.542;7.314;2022-11-15T13:21:22;14.40;89.70
14006;DHT22;7078;51.542;7.314;2022-11-15T13:24:15;14.40;90.00
14006;DHT22;7078;51.542;7.314;2022-11-15T13:26:42;14.40;90.20
14006;DHT22;7078;51.542;7.314;2022-11-15T13:29:25;14.40;90.60
14006;DHT22;7078;51.542;7.314;2022-11-15T13:31:51;14.40;91.10
14006;DHT22;7078;51.542;7.314;2022-11-15T13:34:32;14.40;91.40
14006;DHT22;7078;51.542;7.314;2022-11-15T13:36:59;14.40;91.50
14006;DHT22;7078;51.542;7.314;2022-11-15T13:39:31;14.30;91.60
14006;DHT22;7078;51.542;7.314;2022-11-15T13:41:58;14.30;92.10
14006;DHT22;7078;51.542;7.314;2022-11-15T13:44:26;14.30;92.50
14006;DHT22;7078;51.542;7.314;2022-11-15T13:47:05;14.20;92.80
14006;DHT22;7078;51.542;7.314;2022-11-15T13:49:32;14.20;93.50
14006;DHT22;7078;51.542;7.314;2022-11-15T13:52:00;14.20;94.20
14006;DHT22;7078;51.542;7.314;2022-11-15T13:59:49;14.20;94.90
14006;DHT22;7078;51.542;7.314;2022-11-15T14:02:25;14.20;94.90
14006;DHT22;7078;51.542;7.314;2022-11-15T14:04:53;14.20;95.20
14006;DHT22;7078;51.542;7.314;2022-11-15T14:07:24;14.20;95.20
14006;DHT22;7078;51.542;7.314;2022-11-15T14:09:50;14.20;95.70
14006;DHT22;7078;51.542;7.314;2022-11-15T14:12:34;14.10;96.40
14006;DHT22;7078;51.542;7.314;2022-11-15T14:15:39;14.10;96.60
14006;DHT22;7078;51.542;7.314;2022-11-15T14:18:04;14.10;98.00
14006;DHT22;7078;51.542;7.314;2022-11-15T14:20:38;14.10;98.30
14006;DHT22;7078;51.542;7.314;2022-11-15T14:23:25;14.00;98.70
14006;DHT22;7078;51.542;7.314;2022-11-15T14:25:55;14.00;99.90
14006;DHT22;7078;51.542;7.314;2022-11-15T14:30:51;14.00;99.90
14006;DHT22;7078;51.542;7.314;2022-11-15T14:33:32;14.00;99.90
14006;DHT22;7078;51.542;7.314;2022-11-15T14:36:20;14.10;99.90
14006;DHT22;7078;51.542;7.314;2022-11-15T14:38:47;14.00;99.90
14006;DHT22;7078;51.542;7.314;2022-11-15T14:41:23;14.00;99.90
14006;DHT22;7078;51.542;7.314;2022-11-15T14:43:50;14.00;99.90
14006;DHT22;7078;51.542;7.314;2022-11-15T14:46:16;14.00;99.90
14006;DHT22;7078;51.542;7.314;2022-11-15T14:48:42;14.00;99.90
14006;DHT22;7078;51.542;7.314;2022-11-15T14:51:14;13.90;99.90
14006;DHT22;7078;51.542;7.314;2022-11-15T14:53:41;13.90;99.90
14006;DHT22;7078;51.542;7.314;2022-11-15T14:56:07;13.80;99.90
14006;DHT22;7078;51.542;7.314;2022-11-15T14:58:32;13.80;99.90
14006;DHT22;7078;51.542;7.314;2022-11-15T15:00:58;13.80;99.90
14006;DHT22;7078;51.542;7.314;2022-11-15T15:03:23;13.70;99.90
14006;DHT22;7078;51.542;7.314;2022-11-15T15:05:49;13.70;99.90
14006;DHT22;7078;51.542;7.314;2022-11-15T15:08:14;13.70;99.90
14006;DHT22;7078;51.542;7.314;2022-11-15T15:10:44;13.60;99.90
14006;DHT22;7078;51.542;7.314;2022-11-15T15:13:23;13.70;99.90
14006;DHT22;7078;51.542;7.314;2022-11-15T15:15:50;13.60;99.90
14006;DHT22;7078;51.542;7.314;2022-11-15T15:18:16;13.60;99.90
14006;DHT22;7078;51.542;7.314;2022-11-15T15:20:43;13.60;99.90
14006;DHT22;7078;51.542;7.314;2022-11-15T15:23:18;13.60;99.90
14006;DHT22;7078;51.542;7.314;2022-11-15T15:25:45;13.60;99.90
14006;DHT22;7078;51.542;7.314;2022-11-15T15:28:12;13.60;99.90
14006;DHT22;7078;51.542;7.314;2022-11-15T15:30:38;13.50;99.90
14006;DHT22;7078;51.542;7.314;2022-11-15T15:33:03;13.50;99.90
14006;DHT22;7078;51.542;7.314;2022-11-15T15:35:31;13.40;99.90
14006;DHT22;7078;51.542;7.314;2022-11-15T15:37:57;13.40;99.90
14006;DHT22;7078;51.542;7.314;2022-11-15T15:40:24;13.40;99.90
14006;DHT22;7078;51.542;7.314;2022-11-15T15:42:50;13.50;99.90
14006;DHT22;7078;51.542;7.314;2022-11-15T15:45:17;13.50;99.90
14006;DHT22;7078;51.542;7.314;2022-11-15T15:47:43;13.60;99.90
14006;DHT22;7078;51.542;7.314;2022-11-15T15:50:31;13.60;99.90
14006;DHT22;7078;51.542;7.314;2022-11-15T15:52:58;13.60;99.90
14006;DHT22;7078;51.542;7.314;2022-11-15T15:55:25;13.60;99.90
14006;DHT22;7078;51.542;7.314;2022-11-15T15:57:51;13.50;99.90
14006;DHT22;7078;51.542;7.314;2022-11-15T16:00:17;13.40;99.90
14006;DHT22;7078;51.542;7.314;2022-11-15T16:02:43;13.50;99.90
14006;DHT22;7078;51.542;7.314;2022-11-15T16:05:10;13.50;99.90
14006;DHT22;7078;51.542;7.314;2022-11-15T16:07:36;13.50;99.90
14006;DHT22;7078;51.542;7.314;2022-11-15T16:10:09;13.50;99.90
14006;DHT22;7078;51.542;7.314;2022-11-15T16:12:38;13.40;99.90
14006;DHT22;7078;51.542;7.314;2022-11-15T16:15:04;13.50;99.90
14006;DHT22;7078;51.542;7.314;2022-11-15T16:17:35;13.50;99.90
14006;DHT22;7078;51.542;7.314;2022-11-15T16:20:03;13.50;99.90
14006;DHT22;7078;51.542;7.314;2022-11-15T16:22:28;13.60;99.90
14006;DHT22;7078;51.542;7.314;2022-11-15T16:24:54;13.60;99.90
14006;DHT22;7078;51.542;7.314;2022-11-15T16:27:20;13.60;99.90
14006;DHT22;7078;51.542;7.314;2022-11-15T16:29:47;13.50;99.90
14006;DHT22;7078;51.542;7.314;2022-11-15T16:32:13;13.50;99.90
14006;DHT22;7078;51.542;7.314;2022-11-15T16:34:39;13.50;99.90
14006;DHT22;7078;51.542;7.314;2022-11-15T16:37:05;13.40;99.90
14006;DHT22;7078;51.542;7.314;2022-11-15T16:39:32;13.40;99.90
14006;DHT22;7078;51.542;7.314;2022-11-15T16:41:58;13.30;99.90
14006;DHT22;7078;51.542;7.314;2022-11-15T16:44:24;13.30;99.90
14006;DHT22;7078;51.542;7.314;2022-11-15T16:46:50;13.20;99.90
14006;DHT22;7078;51.542;7.314;2022-11-15T16:49:19;13.20;99.90
14006;DHT22;7078;51.542;7.314;2022-11-15T16:51:46;13.20;99.90
14006;DHT22;7078;51.542;7.314;2022-11-15T16:54:13;13.20;99.90
14006;DHT22;7078;51.542;7.314;2022-11-15T16:56:39;13.20;99.90
14006;DHT22;7078;51.542;7.314;2022-11-15T16:59:05;13.20;99.90
14006;DHT22;7078;51.542;7.314;2022-11-15T17:01:33;13.10;99.90
14006;DHT22;7078;51.542;7.314;2022-11-15T17:04:00;13.10;99.90
14006;DHT22;7078;51.542;7.314;2022-11-15T17:06:37;13.20;99.90
14006;DHT22;7078;51.542;7.314;2022-11-15T17:09:03;13.20;99.90
14006;DHT22;7078;51.542;7.314;2022-11-15T17:11:29;13.20;99.90
14006;DHT22;7078;51.542;7.314;2022-11-15T17:13:57;13.20;99.90
14006;DHT22;7078;51.542;7.314;2022-11-15T17:16:23;13.10;99.90
14006;DHT22;7078;51.542;7.314;2022-11-15T17:18:52;13.20;99.90
14006;DHT22;7078;51.542;7.314;2022-11-15T17:21:20;13.20;99.90
14006;DHT22;7078;51.542;7.314;2022-11-15T17:23:46;13.20;99.90
14006;DHT22;7078;51.542;7.314;2022-11-15T17:26:13;13.20;99.90